sensor_id;sensor_type;location;lat;lon;timestamp;pressure;altitude;pressure_sealevel;temperature;humidity
26531;BME280;14201;43.188;24.160;2023-09-07T00:00:09;100137.53;;;21.92;75.52
26531;BME280;14201;43.188;24.160;2023-09-07T00:02:35;100130.44;;;21.83;75.93
26531;BME280;14201;43.188;24.160;2023-09-07T00:05:01;100129.50;;;21.76;76.76
26531;BME280;14201;43.188;24.160;2023-09-07T00:07:26;100130.41;;;21.80;77.24
26531;BME280;14201;43.188;24.160;2023-09-07T00:09:52;100118.94;;;21.81;77.86
26531;BME280;14201;43.188;24.160;2023-09-07T00:12:17;100118.06;;;21.83;78.71
26531;BME280;14201;43.188;24.160;2023-09-07T00:14:42;100128.66;;;21.87;77.92
26531;BME280;14201;43.188;24.160;2023-09-07T00:17:08;100126.00;;;21.88;77.49
26531;BME280;14201;43.188;24.160;2023-09-07T00:19:33;100129.53;;;21.82;76.98
26531;BME280;14201;43.188;24.160;2023-09-07T00:22:02;100122.47;;;21.86;76.53
26531;BME280;14201;43.188;24.160;2023-09-07T00:24:27;100125.97;;;21.79;76.85
26531;BME280;14201;43.188;24.160;2023-09-07T00:26:53;100127.78;;;21.83;78.01
26531;BME280;14201;43.188;24.160;2023-09-07T00:29:18;100126.91;;;21.87;77.00
26531;BME280;14201;43.188;24.160;2023-09-07T00:31:43;100134.84;;;21.86;77.67
26531;BME280;14201;43.188;24.160;2023-09-07T00:34:09;100134.81;;;21.78;76.74
26531;BME280;14201;43.188;24.160;2023-09-07T00:36:34;100127.72;;;21.68;76.18
26531;BME280;14201;43.188;24.160;2023-09-07T00:39:00;100128.56;;;21.65;77.14
26531;BME280;14201;43.188;24.160;2023-09-07T00:41:25;100130.38;;;21.68;75.65
26531;BME280;14201;43.188;24.160;2023-09-07T00:43:51;100135.66;;;21.66;75.03
26531;BME280;14201;43.188;24.160;2023-09-07T00:46:16;100130.34;;;21.66;75.71
26531;BME280;14201;43.188;24.160;2023-09-07T00:48:42;100141.84;;;21.63;76.54
26531;BME280;14201;43.188;24.160;2023-09-07T00:51:08;100132.94;;;21.61;77.16
26531;BME280;14201;43.188;24.160;2023-09-07T00:53:33;100143.56;;;21.63;76.57
26531;BME280;14201;43.188;24.160;2023-09-07T00:55:58;100136.53;;;21.63;78.04
26531;BME280;14201;43.188;24.160;2023-09-07T00:58:24;100130.31;;;21.58;78.23
26531;BME280;14201;43.188;24.160;2023-09-07T01:00:49;100132.03;;;21.55;76.57
26531;BME280;14201;43.188;24.160;2023-09-07T01:03:15;100124.97;;;21.52;77.30
26531;BME280;14201;43.188;24.160;2023-09-07T01:05:51;100122.22;;;21.38;79.12
26531;BME280;14201;43.188;24.160;2023-09-07T01:08:23;100120.47;;;21.40;79.58
26531;BME280;14201;43.188;24.160;2023-09-07T01:10:49;100118.72;;;21.44;78.84
26531;BME280;14201;43.188;24.160;2023-09-07T01:13:14;100118.69;;;21.41;79.90
26531;BME280;14201;43.188;24.160;2023-09-07T01:15:43;100119.56;;;21.40;78.79
26531;BME280;14201;43.188;24.160;2023-09-07T01:18:08;100129.25;;;21.38;79.45
26531;BME280;14201;43.188;24.160;2023-09-07T01:20:34;100130.13;;;21.35;78.52
26531;BME280;14201;43.188;24.160;2023-09-07T01:23:01;100127.41;;;21.26;78.49
26531;BME280;14201;43.188;24.160;2023-09-07T01:25:27;100124.69;;;21.17;79.58
26531;BME280;14201;43.188;24.160;2023-09-07T01:27:53;100120.28;;;21.14;80.65
26531;BME280;14201;43.188;24.160;2023-09-07T01:30:18;100117.66;;;21.17;81.24
26531;BME280;14201;43.188;24.160;2023-09-07T01:32:47;100119.41;;;21.17;81.30
26531;BME280;14201;43.188;24.160;2023-09-07T01:35:14;100116.78;;;21.18;81.48
26531;BME280;14201;43.188;24.160;2023-09-07T01:37:42;100120.31;;;21.22;79.98
26531;BME280;14201;43.188;24.160;2023-09-07T01:40:07;100113.28;;;21.26;79.79
26531;BME280;14201;43.188;24.160;2023-09-07T01:42:33;100122.16;;;21.31;80.14
26531;BME280;14201;43.188;24.160;2023-09-07T01:44:59;100121.25;;;21.27;80.12
26531;BME280;14201;43.188;24.160;2023-09-07T01:47:24;100115.03;;;21.23;79.71
26531;BME280;14201;43.188;24.160;2023-09-07T01:49:50;100111.47;;;21.18;80.18
26531;BME280;14201;43.188;24.160;2023-09-07T01:52:15;100115.00;;;21.17;81.26
26531;BME280;14201;43.188;24.160;2023-09-07T01:54:40;100119.38;;;21.12;79.08
26531;BME280;14201;43.188;24.160;2023-09-07T01:57:06;100127.38;;;21.20;79.13
26531;BME280;14201;43.188;24.160;2023-09-07T01:59:31;100124.75;;;21.21;79.64
26531;BME280;14201;43.188;24.160;2023-09-07T02:01:57;100124.72;;;21.15;80.66
26531;BME280;14201;43.188;24.160;2023-09-07T02:04:22;100131.72;;;21.10;76.66
26531;BME280;14201;43.188;24.160;2023-09-07T02:06:47;100129.94;;;21.09;78.06
26531;BME280;14201;43.188;24.160;2023-09-07T02:09:13;100134.34;;;21.04;79.68
26531;BME280;14201;43.188;24.160;2023-09-07T02:11:38;100132.41;;;20.84;80.55
26531;BME280;14201;43.188;24.160;2023-09-07T02:14:05;100130.63;;;20.80;80.54
26531;BME280;14201;43.188;24.160;2023-09-07T02:16:30;100127.97;;;20.83;80.70
26531;BME280;14201;43.188;24.160;2023-09-07T02:19:02;100138.53;;;20.79;81.05
26531;BME280;14201;43.188;24.160;2023-09-07T02:21:32;100134.97;;;20.75;81.45
26531;BME280;14201;43.188;24.160;2023-09-07T02:23:57;100136.78;;;20.79;81.02
26531;BME280;14201;43.188;24.160;2023-09-07T02:26:23;100148.25;;;20.78;80.86
26531;BME280;14201;43.188;24.160;2023-09-07T02:28:48;100143.78;;;20.73;81.53
26531;BME280;14201;43.188;24.160;2023-09-07T02:31:14;100144.66;;;20.72;81.85
26531;BME280;14201;43.188;24.160;2023-09-07T02:33:39;100143.78;;;20.71;82.23
26531;BME280;14201;43.188;24.160;2023-09-07T02:36:05;100150.66;;;20.55;82.75
26531;BME280;14201;43.188;24.160;2023-09-07T02:38:30;100146.03;;;20.37;83.78
26531;BME280;14201;43.188;24.160;2023-09-07T02:40:56;100151.25;;;20.28;84.59
26531;BME280;14201;43.188;24.160;2023-09-07T02:43:21;100154.03;;;20.40;83.74
26531;BME280;14201;43.188;24.160;2023-09-07T02:45:48;100147.94;;;20.48;83.57
26531;BME280;14201;43.188;24.160;2023-09-07T02:48:13;100149.72;;;20.52;83.03
26531;BME280;14201;43.188;24.160;2023-09-07T02:53:37;100162.91;;;20.45;83.92
26531;BME280;14201;43.188;24.160;2023-09-07T02:56:02;100156.75;;;20.48;84.25
26531;BME280;14201;43.188;24.160;2023-09-07T02:58:29;100160.25;;;20.45;85.11
26531;BME280;14201;43.188;24.160;2023-09-07T03:00:55;100164.63;;;20.45;85.79
26531;BME280;14201;43.188;24.160;2023-09-07T03:03:21;100155.91;;;20.52;85.09
26531;BME280;14201;43.188;24.160;2023-09-07T03:05:46;100162.16;;;20.59;84.37
26531;BME280;14201;43.188;24.160;2023-09-07T03:08:11;100162.16;;;20.57;84.09
26531;BME280;14201;43.188;24.160;2023-09-07T03:10:37;100167.41;;;20.56;83.86
26531;BME280;14201;43.188;24.160;2023-09-07T03:13:04;100165.63;;;20.53;83.81
26531;BME280;14201;43.188;24.160;2023-09-07T03:15:30;100167.19;;;20.34;84.25
26531;BME280;14201;43.188;24.160;2023-09-07T03:17:56;100176.00;;;20.32;84.74
26531;BME280;14201;43.188;24.160;2023-09-07T03:20:21;100168.81;;;20.23;85.60
26531;BME280;14201;43.188;24.160;2023-09-07T03:22:46;100175.09;;;20.33;84.44
26531;BME280;14201;43.188;24.160;2023-09-07T03:25:13;100173.34;;;20.33;84.25
26531;BME280;14201;43.188;24.160;2023-09-07T03:27:38;100175.94;;;20.29;84.61
26531;BME280;14201;43.188;24.160;2023-09-07T03:30:04;100174.22;;;20.32;84.86
26531;BME280;14201;43.188;24.160;2023-09-07T03:32:31;100169.84;;;20.34;85.46
26531;BME280;14201;43.188;24.160;2023-09-07T03:35:02;100172.50;;;20.37;85.76
26531;BME280;14201;43.188;24.160;2023-09-07T03:37:28;100170.84;;;20.45;85.59
26531;BME280;14201;43.188;24.160;2023-09-07T03:39:53;100168.19;;;20.44;85.21
26531;BME280;14201;43.188;24.160;2023-09-07T03:42:19;100176.13;;;20.45;84.09
26531;BME280;14201;43.188;24.160;2023-09-07T03:44:44;100169.97;;;20.48;83.91
26531;BME280;14201;43.188;24.160;2023-09-07T03:47:10;100170.84;;;20.49;84.25
26531;BME280;14201;43.188;24.160;2023-09-07T03:49:36;100179.69;;;20.48;84.83
26531;BME280;14201;43.188;24.160;2023-09-07T03:52:01;100179.69;;;20.48;84.52
26531;BME280;14201;43.188;24.160;2023-09-07T03:54:27;100182.34;;;20.48;84.38
26531;BME280;14201;43.188;24.160;2023-09-07T03:56:52;100175.13;;;20.34;84.93
26531;BME280;14201;43.188;24.160;2023-09-07T03:59:18;100186.63;;;20.39;84.92
26531;BME280;14201;43.188;24.160;2023-09-07T04:01:44;100177.78;;;20.37;84.72
26531;BME280;14201;43.188;24.160;2023-09-07T04:04:09;100182.19;;;20.34;84.80
26531;BME280;14201;43.188;24.160;2023-09-07T04:06:34;100179.47;;;20.29;85.22
26531;BME280;14201;43.188;24.160;2023-09-07T04:09:00;100185.72;;;20.34;85.35
26531;BME280;14201;43.188;24.160;2023-09-07T04:11:26;100188.34;;;20.33;86.05
26531;BME280;14201;43.188;24.160;2023-09-07T04:13:51;100192.75;;;20.35;86.12
26531;BME280;14201;43.188;24.160;2023-09-07T04:16:16;100191.91;;;20.36;86.58
26531;BME280;14201;43.188;24.160;2023-09-07T04:18:42;100203.34;;;20.32;86.59
26531;BME280;14201;43.188;24.160;2023-09-07T04:21:09;100202.44;;;20.33;85.93
26531;BME280;14201;43.188;24.160;2023-09-07T04:23:35;100210.25;;;20.21;86.03
26531;BME280;14201;43.188;24.160;2023-09-07T04:26:05;100211.84;;;20.06;86.79
26531;BME280;14201;43.188;24.160;2023-09-07T04:28:30;100204.56;;;19.90;88.04
26531;BME280;14201;43.188;24.160;2023-09-07T04:30:56;100201.09;;;19.96;87.07
26531;BME280;14201;43.188;24.160;2023-09-07T04:33:21;100211.75;;;20.02;86.13
26531;BME280;14201;43.188;24.160;2023-09-07T04:35:47;100207.47;;;20.12;85.46
26531;BME280;14201;43.188;24.160;2023-09-07T04:38:12;100213.78;;;20.23;85.73
26531;BME280;14201;43.188;24.160;2023-09-07T04:40:37;100221.78;;;20.26;85.71
26531;BME280;14201;43.188;24.160;2023-09-07T04:43:03;100214.78;;;20.31;86.31
26531;BME280;14201;43.188;24.160;2023-09-07T04:45:28;100221.03;;;20.39;85.51
26531;BME280;14201;43.188;24.160;2023-09-07T04:47:54;100221.97;;;20.44;85.43
26531;BME280;14201;43.188;24.160;2023-09-07T04:50:19;100222.94;;;20.50;85.12
26531;BME280;14201;43.188;24.160;2023-09-07T04:52:44;100226.50;;;20.52;85.45
26531;BME280;14201;43.188;24.160;2023-09-07T04:58:00;100225.53;;;20.46;86.14
26531;BME280;14201;43.188;24.160;2023-09-07T05:00:26;100221.16;;;20.50;87.00
26531;BME280;14201;43.188;24.160;2023-09-07T05:02:52;100227.53;;;20.63;86.81
26531;BME280;14201;43.188;24.160;2023-09-07T05:05:17;100224.97;;;20.71;85.66
26531;BME280;14201;43.188;24.160;2023-09-07T05:07:43;100231.16;;;20.74;85.23
26531;BME280;14201;43.188;24.160;2023-09-07T05:10:08;100229.50;;;20.82;85.58
26531;BME280;14201;43.188;24.160;2023-09-07T05:12:37;100227.84;;;20.94;84.07
26531;BME280;14201;43.188;24.160;2023-09-07T05:15:03;100219.00;;;20.93;85.06
26531;BME280;14201;43.188;24.160;2023-09-07T05:17:29;100225.22;;;20.98;83.88
26531;BME280;14201;43.188;24.160;2023-09-07T05:19:55;100220.94;;;21.11;84.83
26531;BME280;14201;43.188;24.160;2023-09-07T05:22:25;100222.78;;;21.21;85.20
26531;BME280;14201;43.188;24.160;2023-09-07T05:25:01;100222.88;;;21.31;82.48
26531;BME280;14201;43.188;24.160;2023-09-07T05:27:27;100229.06;;;21.34;78.17
26531;BME280;14201;43.188;24.160;2023-09-07T05:29:52;100221.31;;;21.59;79.01
26531;BME280;14201;43.188;24.160;2023-09-07T05:32:17;100231.13;;;21.68;80.70
26531;BME280;14201;43.188;24.160;2023-09-07T05:34:43;100232.88;;;21.66;81.26
26531;BME280;14201;43.188;24.160;2023-09-07T05:37:08;100237.88;;;21.29;81.92
26531;BME280;14201;43.188;24.160;2023-09-07T05:39:34;100238.69;;;21.21;80.70
26531;BME280;14201;43.188;24.160;2023-09-07T05:41:59;100236.94;;;21.23;79.95
26531;BME280;14201;43.188;24.160;2023-09-07T05:44:25;100230.56;;;21.01;79.42
26531;BME280;14201;43.188;24.160;2023-09-07T05:46:50;100240.38;;;21.15;79.84
26531;BME280;14201;43.188;24.160;2023-09-07T05:49:16;100240.31;;;21.07;79.95
26531;BME280;14201;43.188;24.160;2023-09-07T05:51:41;100245.66;;;21.10;80.78
26531;BME280;14201;43.188;24.160;2023-09-07T05:54:07;100245.78;;;21.26;80.55
26531;BME280;14201;43.188;24.160;2023-09-07T05:56:32;100246.78;;;21.40;78.79
26531;BME280;14201;43.188;24.160;2023-09-07T05:58:59;100243.34;;;21.49;76.75
26531;BME280;14201;43.188;24.160;2023-09-07T06:01:24;100243.41;;;21.59;75.36
26531;BME280;14201;43.188;24.160;2023-09-07T06:03:49;100245.28;;;21.70;73.76
26531;BME280;14201;43.188;24.160;2023-09-07T06:06:15;100246.34;;;22.01;66.70
26531;BME280;14201;43.188;24.160;2023-09-07T06:08:40;100261.56;;;22.33;60.22
26531;BME280;14201;43.188;24.160;2023-09-07T06:11:06;100254.53;;;22.46;60.86
26531;BME280;14201;43.188;24.160;2023-09-07T06:13:31;100252.03;;;22.92;59.05
26531;BME280;14201;43.188;24.160;2023-09-07T06:15:57;100252.06;;;23.18;56.56
26531;BME280;14201;43.188;24.160;2023-09-07T06:18:22;100252.97;;;23.46;57.36
26531;BME280;14201;43.188;24.160;2023-09-07T06:20:48;100260.00;;;23.76;57.16
26531;BME280;14201;43.188;24.160;2023-09-07T06:23:13;100252.84;;;24.18;52.82
26531;BME280;14201;43.188;24.160;2023-09-07T06:25:39;100251.81;;;24.50;52.44
26531;BME280;14201;43.188;24.160;2023-09-07T06:28:05;100255.34;;;24.65;52.14
26531;BME280;14201;43.188;24.160;2023-09-07T06:30:30;100261.38;;;24.93;51.33
26531;BME280;14201;43.188;24.160;2023-09-07T06:32:56;100262.19;;;25.07;50.12
26531;BME280;14201;43.188;24.160;2023-09-07T06:35:22;100265.66;;;25.19;47.74
26531;BME280;14201;43.188;24.160;2023-09-07T06:37:48;100258.53;;;25.24;49.20
26531;BME280;14201;43.188;24.160;2023-09-07T06:40:13;100263.84;;;25.27;48.41
26531;BME280;14201;43.188;24.160;2023-09-07T06:42:40;100262.88;;;25.39;48.08
26531;BME280;14201;43.188;24.160;2023-09-07T06:45:06;100261.84;;;25.53;48.92
26531;BME280;14201;43.188;24.160;2023-09-07T06:47:32;100258.94;;;25.78;49.19
26531;BME280;14201;43.188;24.160;2023-09-07T06:49:58;100260.47;;;26.05;47.44
26531;BME280;14201;43.188;24.160;2023-09-07T06:52:23;100261.13;;;26.27;44.60
26531;BME280;14201;43.188;24.160;2023-09-07T06:54:53;100261.88;;;26.37;48.27
26531;BME280;14201;43.188;24.160;2023-09-07T06:57:19;100268.56;;;25.98;45.24
26531;BME280;14201;43.188;24.160;2023-09-07T06:59:45;100265.00;;;25.99;46.49
26531;BME280;14201;43.188;24.160;2023-09-07T07:02:10;100268.38;;;26.16;46.20
26531;BME280;14201;43.188;24.160;2023-09-07T07:04:36;100268.34;;;26.19;44.72
26531;BME280;14201;43.188;24.160;2023-09-07T07:07:02;100259.44;;;26.17;45.02
26531;BME280;14201;43.188;24.160;2023-09-07T07:09:32;100264.53;;;26.39;44.02
26531;BME280;14201;43.188;24.160;2023-09-07T07:11:59;100269.56;;;26.63;44.37
26531;BME280;14201;43.188;24.160;2023-09-07T07:14:28;100262.09;;;26.88;44.12
26531;BME280;14201;43.188;24.160;2023-09-07T07:16:54;100265.31;;;26.47;43.26
26531;BME280;14201;43.188;24.160;2023-09-07T07:19:19;100265.63;;;26.21;44.86
26531;BME280;14201;43.188;24.160;2023-09-07T07:21:45;100268.72;;;25.79;45.23
26531;BME280;14201;43.188;24.160;2023-09-07T07:24:11;100261.94;;;25.43;45.52
26531;BME280;14201;43.188;24.160;2023-09-07T07:26:36;100249.19;;;25.74;45.88
26531;BME280;14201;43.188;24.160;2023-09-07T07:29:02;100273.13;;;25.82;46.75
26531;BME280;14201;43.188;24.160;2023-09-07T07:31:31;100261.47;;;25.93;45.14
26531;BME280;14201;43.188;24.160;2023-09-07T07:33:58;100277.13;;;26.27;45.93
26531;BME280;14201;43.188;24.160;2023-09-07T07:36:24;100272.38;;;26.51;43.92
26531;BME280;14201;43.188;24.160;2023-09-07T07:38:49;100270.75;;;26.41;44.70
26531;BME280;14201;43.188;24.160;2023-09-07T07:41:15;100262.72;;;26.41;44.82
26531;BME280;14201;43.188;24.160;2023-09-07T07:43:40;100266.19;;;26.49;44.94
26531;BME280;14201;43.188;24.160;2023-09-07T07:46:08;100261.13;;;26.26;44.45
26531;BME280;14201;43.188;24.160;2023-09-07T07:48:33;100268.63;;;26.69;45.06
26531;BME280;14201;43.188;24.160;2023-09-07T07:51:04;100268.13;;;27.03;45.07
26531;BME280;14201;43.188;24.160;2023-09-07T07:53:30;100270.75;;;27.06;43.45
26531;BME280;14201;43.188;24.160;2023-09-07T07:55:56;100268.03;;;27.10;44.71
26531;BME280;14201;43.188;24.160;2023-09-07T07:58:22;100270.50;;;27.24;44.71
26531;BME280;14201;43.188;24.160;2023-09-07T08:00:48;100270.69;;;27.10;43.67
26531;BME280;14201;43.188;24.160;2023-09-07T08:03:15;100274.91;;;27.28;42.39
26531;BME280;14201;43.188;24.160;2023-09-07T08:05:40;100266.13;;;27.17;43.43
26531;BME280;14201;43.188;24.160;2023-09-07T08:08:06;100261.88;;;27.04;43.60
26531;BME280;14201;43.188;24.160;2023-09-07T08:10:36;100254.44;;;27.26;43.51
26531;BME280;14201;43.188;24.160;2023-09-07T08:13:02;100269.94;;;27.58;43.21
26531;BME280;14201;43.188;24.160;2023-09-07T08:15:28;100266.09;;;27.73;43.56
26531;BME280;14201;43.188;24.160;2023-09-07T08:17:54;100259.66;;;27.83;42.22
26531;BME280;14201;43.188;24.160;2023-09-07T08:20:20;100267.22;;;28.11;41.49
26531;BME280;14201;43.188;24.160;2023-09-07T08:22:46;100263.28;;;27.81;41.33
26531;BME280;14201;43.188;24.160;2023-09-07T08:25:12;100260.50;;;27.88;42.15
26531;BME280;14201;43.188;24.160;2023-09-07T08:27:40;100256.25;;;28.23;42.69
26531;BME280;14201;43.188;24.160;2023-09-07T08:30:14;100262.06;;;28.44;41.13
26531;BME280;14201;43.188;24.160;2023-09-07T08:32:44;100256.66;;;28.45;42.44
26531;BME280;14201;43.188;24.160;2023-09-07T08:35:11;100255.97;;;28.79;43.31
26531;BME280;14201;43.188;24.160;2023-09-07T08:37:42;100260.03;;;28.97;40.47
26531;BME280;14201;43.188;24.160;2023-09-07T08:40:10;100265.06;;;29.13;40.29
26531;BME280;14201;43.188;24.160;2023-09-07T08:42:37;100262.75;;;29.33;41.32
26531;BME280;14201;43.188;24.160;2023-09-07T08:45:04;100256.69;;;29.61;39.47
26531;BME280;14201;43.188;24.160;2023-09-07T08:47:37;100261.00;;;29.32;38.95
26531;BME280;14201;43.188;24.160;2023-09-07T08:50:04;100259.28;;;28.91;39.56
26531;BME280;14201;43.188;24.160;2023-09-07T08:52:33;100270.09;;;28.88;40.57
26531;BME280;14201;43.188;24.160;2023-09-07T08:54:59;100253.13;;;28.43;41.20
26531;BME280;14201;43.188;24.160;2023-09-07T08:57:29;100252.31;;;28.40;41.03
26531;BME280;14201;43.188;24.160;2023-09-07T08:59:55;100253.91;;;28.50;40.14
26531;BME280;14201;43.188;24.160;2023-09-07T09:02:20;100245.00;;;28.89;40.52
26531;BME280;14201;43.188;24.160;2023-09-07T09:04:46;100247.41;;;29.38;40.52
26531;BME280;14201;43.188;24.160;2023-09-07T09:07:11;100245.59;;;29.75;41.77
26531;BME280;14201;43.188;24.160;2023-09-07T09:09:37;100249.47;;;29.63;38.85
26531;BME280;14201;43.188;24.160;2023-09-07T09:12:10;100245.38;;;29.84;41.05
26531;BME280;14201;43.188;24.160;2023-09-07T09:14:36;100244.19;;;29.94;39.79
26531;BME280;14201;43.188;24.160;2023-09-07T09:17:02;100237.94;;;29.59;40.17
26531;BME280;14201;43.188;24.160;2023-09-07T09:19:32;100232.75;;;29.88;39.77
26531;BME280;14201;43.188;24.160;2023-09-07T09:21:58;100235.75;;;29.75;42.73
26531;BME280;14201;43.188;24.160;2023-09-07T09:24:24;100232.88;;;29.10;42.05
26531;BME280;14201;43.188;24.160;2023-09-07T09:26:49;100231.31;;;29.38;41.81
26531;BME280;14201;43.188;24.160;2023-09-07T09:29:15;100234.84;;;29.03;43.18
26531;BME280;14201;43.188;24.160;2023-09-07T09:31:40;100228.34;;;28.76;42.53
26531;BME280;14201;43.188;24.160;2023-09-07T09:34:06;100235.81;;;29.00;43.43
26531;BME280;14201;43.188;24.160;2023-09-07T09:36:36;100225.00;;;28.64;43.45
26531;BME280;14201;43.188;24.160;2023-09-07T09:39:02;100220.41;;;29.09;42.24
26531;BME280;14201;43.188;24.160;2023-09-07T09:41:32;100222.22;;;28.69;44.53
26531;BME280;14201;43.188;24.160;2023-09-07T09:43:59;100223.91;;;28.33;43.07
26531;BME280;14201;43.188;24.160;2023-09-07T09:46:28;100217.56;;;28.37;42.44
26531;BME280;14201;43.188;24.160;2023-09-07T09:48:57;100226.16;;;28.54;43.89
26531;BME280;14201;43.188;24.160;2023-09-07T09:51:23;100214.22;;;28.25;42.09
26531;BME280;14201;43.188;24.160;2023-09-07T09:53:50;100210.34;;;28.40;44.02
26531;BME280;14201;43.188;24.160;2023-09-07T09:56:16;100196.97;;;28.39;42.36
26531;BME280;14201;43.188;24.160;2023-09-07T09:58:42;100196.16;;;28.76;41.94
26531;BME280;14201;43.188;24.160;2023-09-07T10:01:09;100196.81;;;29.23;41.96
26531;BME280;14201;43.188;24.160;2023-09-07T10:03:41;100201.94;;;29.32;40.91
26531;BME280;14201;43.188;24.160;2023-09-07T10:06:24;100198.50;;;29.27;41.91
26531;BME280;14201;43.188;24.160;2023-09-07T10:11:32;100175.31;;;29.57;41.65
26531;BME280;14201;43.188;24.160;2023-09-07T10:14:02;100174.53;;;29.87;40.26
26531;BME280;14201;43.188;24.160;2023-09-07T10:17:00;100161.50;;;29.71;39.46
26531;BME280;14201;43.188;24.160;2023-09-07T10:19:42;100157.09;;;29.70;39.52
26531;BME280;14201;43.188;24.160;2023-09-07T10:22:21;100164.00;;;29.79;38.91
26531;BME280;14201;43.188;24.160;2023-09-07T10:25:19;100156.81;;;29.47;38.04
26531;BME280;14201;43.188;24.160;2023-09-07T10:27:45;100162.03;;;29.53;38.64
26531;BME280;14201;43.188;24.160;2023-09-07T10:30:11;100148.94;;;29.73;38.92
26531;BME280;14201;43.188;24.160;2023-09-07T10:32:38;100158.69;;;29.77;39.38
26531;BME280;14201;43.188;24.160;2023-09-07T10:35:15;100143.22;;;29.86;38.63
26531;BME280;14201;43.188;24.160;2023-09-07T10:37:44;100141.03;;;29.67;37.95
26531;BME280;14201;43.188;24.160;2023-09-07T10:40:11;100144.78;;;29.61;37.83
26531;BME280;14201;43.188;24.160;2023-09-07T10:42:37;100154.66;;;29.61;37.69
26531;BME280;14201;43.188;24.160;2023-09-07T10:45:14;100146.44;;;29.65;36.59
26531;BME280;14201;43.188;24.160;2023-09-07T10:47:45;100142.31;;;29.87;36.84
26531;BME280;14201;43.188;24.160;2023-09-07T10:50:13;100134.22;;;29.88;37.40
26531;BME280;14201;43.188;24.160;2023-09-07T10:52:43;100136.50;;;30.32;36.28
26531;BME280;14201;43.188;24.160;2023-09-07T10:55:10;100138.97;;;30.38;35.94
26531;BME280;14201;43.188;24.160;2023-09-07T10:57:47;100127.00;;;30.18;36.70
26531;BME280;14201;43.188;24.160;2023-09-07T11:00:14;100147.97;;;30.07;37.91
26531;BME280;14201;43.188;24.160;2023-09-07T11:02:43;100143.50;;;29.76;37.30
26531;BME280;14201;43.188;24.160;2023-09-07T11:05:09;100137.34;;;29.73;36.31
26531;BME280;14201;43.188;24.160;2023-09-07T11:07:36;100125.34;;;29.84;34.82
26531;BME280;14201;43.188;24.160;2023-09-07T11:10:05;100119.81;;;29.58;35.46
26531;BME280;14201;43.188;24.160;2023-09-07T11:12:37;100115.59;;;29.82;36.89
26531;BME280;14201;43.188;24.160;2023-09-07T11:15:03;100122.59;;;29.55;36.61
26531;BME280;14201;43.188;24.160;2023-09-07T11:17:29;100115.63;;;29.48;38.55
26531;BME280;14201;43.188;24.160;2023-09-07T11:19:55;100121.28;;;29.37;36.83
26531;BME280;14201;43.188;24.160;2023-09-07T11:22:21;100116.13;;;29.62;36.30
26531;BME280;14201;43.188;24.160;2023-09-07T11:24:47;100107.72;;;29.43;36.12
26531;BME280;14201;43.188;24.160;2023-09-07T11:27:13;100114.56;;;29.22;37.44
26531;BME280;14201;43.188;24.160;2023-09-07T11:29:38;100103.88;;;29.19;36.98
26531;BME280;14201;43.188;24.160;2023-09-07T11:32:08;100098.09;;;29.34;37.41
26531;BME280;14201;43.188;24.160;2023-09-07T11:34:34;100099.94;;;29.32;36.67
26531;BME280;14201;43.188;24.160;2023-09-07T11:37:02;100101.63;;;29.36;36.64
26531;BME280;14201;43.188;24.160;2023-09-07T11:39:28;100087.50;;;29.61;36.27
26531;BME280;14201;43.188;24.160;2023-09-07T11:41:54;100098.34;;;29.58;35.95
26531;BME280;14201;43.188;24.160;2023-09-07T11:44:20;100090.72;;;29.42;36.14
26531;BME280;14201;43.188;24.160;2023-09-07T11:46:46;100093.00;;;29.56;36.39
26531;BME280;14201;43.188;24.160;2023-09-07T11:49:12;100066.63;;;29.72;36.62
26531;BME280;14201;43.188;24.160;2023-09-07T11:51:38;100093.66;;;29.97;35.66
26531;BME280;14201;43.188;24.160;2023-09-07T11:54:04;100088.78;;;29.80;35.51
26531;BME280;14201;43.188;24.160;2023-09-07T11:56:30;100090.19;;;29.61;35.80
26531;BME280;14201;43.188;24.160;2023-09-07T11:58:57;100083.66;;;29.70;34.33
26531;BME280;14201;43.188;24.160;2023-09-07T12:01:22;100071.72;;;30.11;35.49
26531;BME280;14201;43.188;24.160;2023-09-07T12:03:48;100088.13;;;30.02;36.18
26531;BME280;14201;43.188;24.160;2023-09-07T12:06:14;100086.69;;;30.18;35.48
26531;BME280;14201;43.188;24.160;2023-09-07T12:08:42;100078.84;;;29.82;32.83
26531;BME280;14201;43.188;24.160;2023-09-07T12:11:08;100069.59;;;29.61;34.27
26531;BME280;14201;43.188;24.160;2023-09-07T12:13:35;100079.28;;;29.67;33.15
26531;BME280;14201;43.188;24.160;2023-09-07T12:16:01;100078.53;;;29.62;34.55
26531;BME280;14201;43.188;24.160;2023-09-07T12:18:27;100072.16;;;29.33;35.13
26531;BME280;14201;43.188;24.160;2023-09-07T12:20:53;100072.75;;;29.44;35.38
26531;BME280;14201;43.188;24.160;2023-09-07T12:23:19;100072.13;;;29.66;35.01
26531;BME280;14201;43.188;24.160;2023-09-07T12:25:45;100080.91;;;29.74;33.81
26531;BME280;14201;43.188;24.160;2023-09-07T12:28:15;100064.16;;;29.94;33.10
26531;BME280;14201;43.188;24.160;2023-09-07T12:30:41;100070.13;;;30.04;33.54
26531;BME280;14201;43.188;24.160;2023-09-07T12:33:09;100052.75;;;30.16;32.74
26531;BME280;14201;43.188;24.160;2023-09-07T12:35:35;100069.31;;;30.02;33.04
26531;BME280;14201;43.188;24.160;2023-09-07T12:38:10;100068.25;;;29.78;33.44
26531;BME280;14201;43.188;24.160;2023-09-07T12:40:43;100056.19;;;29.91;33.51
26531;BME280;14201;43.188;24.160;2023-09-07T12:43:09;100044.44;;;30.23;33.34
26531;BME280;14201;43.188;24.160;2023-09-07T12:45:35;100050.16;;;30.13;34.21